Lac Du Flambeau, Wisconsin
Current Conditions -  °F | °C
As of 12:15 PM on Wednesday 28 Jan 2015 (Local Time) from KARV Reporting Station
Overcast Overcast  
Wind Chill: 16°   Ceiling: 1000
Heat Index: 27°   Visibility: 7mi
Dew Point: 23°   Wind: 13mph
Humidity: 85%   Direction: 150°SSE
Pressure: 29.98"   Gusts: 21mph
Location:  45.97°N, 89.89°W
Report Text: KARV 281815Z AUTO 15011G18KT 7SM OVC010 M03/M05 A2998 RMK AO2 T10301052
Loading
Personal Weather Stations






























Interactive Weather Map New forecast layout! Learn more

10-Day Weather Forecast

Advertisements
Track Severe Weather on mobile